Time;durP1;ratioP1;P1;durP2;ratioP2;P2;SDS_P1;SDS_P2;PMS_P1;PMS_P2;Temp;Humidity;BMP_temperature;BMP_pressure;BME280_temperature;BME280_humidity;BME280_pressure;Samples;Min_cycle;Max_cycle;Signal;HPM_P1;HPM_P2
2022/10/11 00:00:23;;;;;;;1.07;0.87;;;11.00;99.90;;;;;;4986823;28;20216;-91
2022/10/11 00:02:48;;;;;;;2.10;0.47;;;11.10;99.90;;;;;;5003598;28;20271;-90
2022/10/11 00:05:14;;;;;;;2.10;0.53;;;11.10;99.90;;;;;;4994458;28;20671;-90
2022/10/11 00:07:40;;;;;;;6.80;1.10;;;11.10;99.90;;;;;;4988652;28;20289;-91
2022/10/11 00:10:07;;;;;;;8.57;0.73;;;11.10;99.90;;;;;;4987486;28;20311;-89
2022/10/11 00:12:33;;;;;;;1.80;0.93;;;11.10;99.90;;;;;;5003458;28;20227;-90
2022/10/11 00:14:59;;;;;;;3.40;1.07;;;11.10;99.90;;;;;;4988579;28;20224;-90
2022/10/11 00:17:25;;;;;;;1.90;0.60;;;11.10;99.90;;;;;;4987795;28;20243;-90
2022/10/11 00:19:50;;;;;;;4.57;0.97;;;11.00;99.90;;;;;;4986806;28;20360;-90
2022/10/11 00:22:16;;;;;;;0.80;0.60;;;11.00;99.90;;;;;;5020032;28;20748;-90
2022/10/11 00:24:42;;;;;;;1.90;0.53;;;10.90;99.90;;;;;;4986450;28;20703;-90
2022/10/11 00:27:08;;;;;;;10.37;0.90;;;10.90;99.90;;;;;;5018493;28;20287;-93
2022/10/11 00:29:35;;;;;;;6.47;1.27;;;10.80;99.90;;;;;;4988822;28;20188;-91
2022/10/11 00:32:01;;;;;;;1.27;0.63;;;10.80;99.90;;;;;;4986966;28;20251;-89
2022/10/11 00:34:27;;;;;;;5.07;1.17;;;10.90;99.90;;;;;;5003143;28;20293;-89
2022/10/11 00:36:52;;;;;;;1.20;0.87;;;10.90;99.90;;;;;;4986451;28;20220;-89
2022/10/11 00:39:18;;;;;;;5.87;0.70;;;10.90;99.90;;;;;;5002775;28;20231;-89
2022/10/11 00:41:44;;;;;;;3.63;1.20;;;10.90;99.90;;;;;;5019134;28;20211;-89
2022/10/11 00:44:19;;;;;;;1.20;1.17;;;10.90;99.90;;;;;;4987672;28;20630;-91
2022/10/11 00:46:53;;;;;;;2.53;0.53;;;10.90;99.90;;;;;;4987776;28;20207;-90
2022/10/11 00:49:22;;;;;;;6.03;1.30;;;10.90;99.90;;;;;;4987672;28;20245;-88
2022/10/11 00:52:27;;;;;;;2.47;1.07;;;10.80;99.90;;;;;;4987050;28;20235;-91
2022/10/11 00:54:54;;;;;;;0.93;0.70;;;10.70;99.90;;;;;;5002521;28;20224;-87
2022/10/11 00:57:24;;;;;;;5.70;1.27;;;10.70;99.90;;;;;;4987908;28;20295;-88
2022/10/11 00:59:52;;;;;;;2.63;0.87;;;10.70;99.90;;;;;;4988585;28;20299;-87
2022/10/11 01:02:21;;;;;;;1.37;1.27;;;10.70;99.90;;;;;;4988545;28;20595;-90
2022/10/11 01:04:48;;;;;;;7.03;0.50;;;10.70;99.90;;;;;;5019394;28;20224;-89
2022/10/11 01:07:16;;;;;;;12.70;1.77;;;10.60;99.90;;;;;;4987498;28;20227;-88
2022/10/11 01:09:41;;;;;;;9.83;1.00;;;10.60;99.90;;;;;;4978889;28;21163;-89
2022/10/11 01:12:15;;;;;;;4.53;1.40;;;10.50;99.90;;;;;;4987961;28;20236;-87
2022/10/11 01:15:08;;;;;;;7.60;1.60;;;10.50;99.90;;;;;;4987252;28;20188;-91
2022/10/11 01:18:02;;;;;;;6.50;0.90;;;10.40;99.90;;;;;;4988115;28;20184;-89
2022/10/11 01:20:43;;;;;;;2.20;0.67;;;10.40;99.90;;;;;;4987465;28;20327;-88
2022/10/11 01:23:15;;;;;;;1.37;1.23;;;10.40;99.90;;;;;;4987621;28;20310;-88
2022/10/11 01:26:18;;;;;;;2.90;0.80;;;10.40;99.90;;;;;;4986817;28;20235;-91
2022/10/11 01:28:47;;;;;;;2.13;1.57;;;10.50;99.90;;;;;;5001897;28;20230;-88
2022/10/11 01:31:25;;;;;;;3.50;0.90;;;10.40;99.90;;;;;;5001959;28;20232;-91
2022/10/11 01:34:13;;;;;;;1.47;1.10;;;10.40;99.90;;;;;;4986721;28;20235;-89
2022/10/11 01:37:01;;;;;;;0.67;0.67;;;10.40;99.90;;;;;;4994835;28;20216;-92
2022/10/11 01:39:36;;;;;;;2.20;0.73;;;10.30;99.90;;;;;;4992517;28;20311;-91
2022/10/11 01:42:06;;;;;;;6.97;1.80;;;10.30;99.90;;;;;;4985986;28;20306;-88
2022/10/11 01:44:34;;;;;;;3.90;0.63;;;10.30;99.90;;;;;;4986170;28;20192;-87
2022/10/11 01:47:00;;;;;;;0.97;0.80;;;10.40;99.90;;;;;;4985715;28;20307;-91
2022/10/11 01:49:25;;;;;;;5.03;1.47;;;10.30;99.90;;;;;;4986478;28;20319;-90
2022/10/11 01:51:54;;;;;;;1.57;0.90;;;10.30;99.90;;;;;;4985929;28;20683;-88
2022/10/11 01:55:07;;;;;;;6.80;1.90;;;10.30;99.90;;;;;;4978698;28;20208;-88
2022/10/11 01:57:39;;;;;;;7.90;0.50;;;10.30;99.90;;;;;;4953441;28;20216;-88
2022/10/11 02:00:10;;;;;;;7.70;0.80;;;10.30;99.90;;;;;;4965120;28;20227;-89
2022/10/11 02:03:01;;;;;;;1.70;0.50;;;10.30;99.90;;;;;;4993430;28;20384;-88
2022/10/11 02:05:49;;;;;;;9.47;1.63;;;10.30;99.90;;;;;;5022606;28;20191;-88
2022/10/11 02:08:39;;;;;;;2.47;0.80;;;10.30;99.90;;;;;;5038234;28;20207;-88
2022/10/11 02:11:15;;;;;;;1.53;1.43;;;10.40;99.90;;;;;;5007811;28;20216;-92
2022/10/11 02:13:49;;;;;;;6.13;1.07;;;10.30;99.90;;;;;;5005750;28;20708;-92
2022/10/11 02:16:18;;;;;;;5.30;0.40;;;10.40;99.90;;;;;;5006282;28;20699;-90
2022/10/11 02:18:48;;;;;;;1.93;1.07;;;10.40;99.90;;;;;;5007019;28;20242;-90
2022/10/11 02:21:18;;;;;;;2.20;0.67;;;10.40;99.90;;;;;;5005705;28;21064;-91
2022/10/11 02:23:50;;;;;;;6.17;1.27;;;10.40;99.90;;;;;;5014167;28;20199;-90
2022/10/11 02:26:18;;;;;;;7.53;1.17;;;10.30;99.90;;;;;;5005580;28;20731;-88
2022/10/11 02:28:46;;;;;;;1.33;0.53;;;10.20;99.90;;;;;;5006585;28;20344;-92
2022/10/11 02:31:14;;;;;;;7.07;0.50;;;10.10;99.90;;;;;;5006292;28;20227;-91
2022/10/11 02:33:45;;;;;;;2.30;0.60;;;10.00;99.90;;;;;;5006022;28;20226;-91
2022/10/11 02:36:18;;;;;;;3.80;0.70;;;10.00;99.90;;;;;;5006787;28;20310;-90
2022/10/11 02:38:51;;;;;;;5.20;1.13;;;10.00;99.90;;;;;;5007802;28;20202;-89
2022/10/11 02:41:27;;;;;;;3.10;1.63;;;9.90;99.90;;;;;;5009413;28;20236;-89
2022/10/11 02:44:02;;;;;;;3.77;1.53;;;9.90;99.90;;;;;;5009133;28;20742;-89
2022/10/11 02:46:29;;;;;;;11.90;1.10;;;9.80;99.90;;;;;;5008984;28;20256;-91
2022/10/11 02:48:59;;;;;;;4.50;0.60;;;9.80;99.90;;;;;;5025035;28;20215;-87
2022/10/11 02:51:28;;;;;;;2.33;1.20;;;9.80;99.90;;;;;;5009821;28;20239;-89
2022/10/11 02:53:54;;;;;;;7.10;1.37;;;9.80;99.90;;;;;;5016250;28;20667;-89
2022/10/11 02:56:19;;;;;;;3.13;0.83;;;9.80;99.90;;;;;;5009204;28;20192;-89
2022/10/11 02:58:45;;;;;;;8.70;2.47;;;9.80;99.90;;;;;;5007790;28;20233;-90
2022/10/11 03:01:11;;;;;;;4.90;0.80;;;9.70;99.90;;;;;;5009611;28;20322;-90
2022/10/11 03:03:37;;;;;;;0.63;0.50;;;9.70;99.90;;;;;;5024181;28;20295;-91
2022/10/11 03:06:03;;;;;;;0.27;0.27;;;9.70;99.90;;;;;;5023727;28;20233;-90
2022/10/11 03:08:30;;;;;;;8.37;0.90;;;9.60;99.90;;;;;;5041280;28;21052;-90
2022/10/11 03:10:56;;;;;;;1.17;0.83;;;9.60;99.90;;;;;;5008062;28;20229;-90
2022/10/11 03:13:21;;;;;;;1.17;0.93;;;9.70;99.90;;;;;;5008038;28;20235;-89
2022/10/11 03:15:51;;;;;;;0.83;0.83;;;9.70;99.90;;;;;;5007999;28;21017;-90
2022/10/11 03:18:17;;;;;;;5.40;1.17;;;9.70;99.90;;;;;;5016963;28;20215;-91
2022/10/11 03:20:43;;;;;;;7.60;1.03;;;9.70;99.90;;;;;;5008353;28;20180;-89
2022/10/11 03:23:10;;;;;;;2.93;1.83;;;9.60;99.90;;;;;;5009348;28;20198;-90
2022/10/11 03:25:35;;;;;;;3.40;0.67;;;9.60;99.90;;;;;;5008292;28;20230;-90
2022/10/11 03:28:01;;;;;;;1.83;1.13;;;9.50;99.90;;;;;;5007977;28;20223;-89
2022/10/11 03:30:27;;;;;;;2.77;0.70;;;9.40;99.90;;;;;;5040512;28;20223;-89
2022/10/11 03:32:53;;;;;;;2.87;1.53;;;9.40;99.90;;;;;;5009036;28;20211;-88
2022/10/11 03:35:19;;;;;;;8.70;1.97;;;9.40;99.90;;;;;;5008242;28;20227;-89
2022/10/11 03:37:44;;;;;;;1.17;1.07;;;9.40;99.90;;;;;;5008373;28;20320;-87
2022/10/11 03:40:13;;;;;;;2.87;0.60;;;9.50;99.90;;;;;;5007503;28;20223;-88
2022/10/11 03:42:39;;;;;;;8.53;1.40;;;9.50;99.90;;;;;;5008741;28;20231;-89
2022/10/11 03:45:07;;;;;;;1.90;0.77;;;9.60;99.90;;;;;;5007286;28;20599;-89
2022/10/11 03:47:37;;;;;;;0.77;0.77;;;9.70;99.90;;;;;;5008072;28;20183;-89
2022/10/11 03:50:05;;;;;;;5.83;1.03;;;9.70;99.90;;;;;;5007342;28;20223;-89
2022/10/11 03:52:31;;;;;;;3.50;0.80;;;9.80;99.90;;;;;;5007485;28;20231;-88
2022/10/11 03:54:57;;;;;;;1.67;1.00;;;9.80;99.90;;;;;;5008231;28;20547;-89
2022/10/11 03:57:23;;;;;;;5.23;0.70;;;9.90;99.90;;;;;;5008166;28;20218;-88
2022/10/11 03:59:48;;;;;;;15.33;2.03;;;9.90;99.90;;;;;;5007069;28;20227;-89
2022/10/11 04:02:14;;;;;;;1.07;0.57;;;10.00;99.90;;;;;;5007029;28;20243;-90
2022/10/11 04:04:40;;;;;;;8.07;1.90;;;10.00;99.90;;;;;;5022910;28;20233;-90
2022/10/11 04:07:06;;;;;;;1.60;0.77;;;10.00;99.90;;;;;;5007777;28;20269;-90
2022/10/11 04:09:32;;;;;;;6.73;1.00;;;9.90;99.90;;;;;;5007305;28;21095;-91
2022/10/11 04:11:58;;;;;;;0.50;0.40;;;9.90;99.90;;;;;;5006913;28;20684;-89
2022/10/11 04:14:25;;;;;;;8.03;2.00;;;9.90;99.90;;;;;;5007637;28;20191;-89
2022/10/11 04:16:50;;;;;;;0.40;0.40;;;9.90;99.90;;;;;;5006871;28;20207;-89
2022/10/11 04:19:16;;;;;;;0.47;0.43;;;9.80;99.90;;;;;;5006662;28;20227;-88
2022/10/11 04:21:42;;;;;;;5.47;1.57;;;9.80;99.90;;;;;;5039617;28;20216;-90
2022/10/11 04:24:10;;;;;;;5.60;0.57;;;9.70;99.90;;;;;;5007355;28;20224;-88
2022/10/11 04:26:36;;;;;;;1.53;1.43;;;9.70;99.90;;;;;;5006216;28;20199;-89
2022/10/11 04:29:03;;;;;;;0.80;0.50;;;9.60;99.90;;;;;;5007271;28;20192;-92
2022/10/11 04:31:29;;;;;;;0.60;0.60;;;9.50;99.90;;;;;;5007297;28;20265;-91
2022/10/11 04:33:55;;;;;;;6.53;1.40;;;9.50;99.90;;;;;;5010723;28;20239;-94
2022/10/11 04:36:22;;;;;;;10.60;2.37;;;9.40;99.90;;;;;;5004555;23;20255;-90
2022/10/11 04:38:48;;;;;;;1.03;0.60;;;9.30;99.90;;;;;;4974320;28;20644;-91
2022/10/11 04:41:15;;;;;;;5.83;1.20;;;9.20;99.90;;;;;;4958441;28;20196;-90
2022/10/11 04:43:40;;;;;;;3.37;1.47;;;9.20;99.90;;;;;;4975545;28;20211;-91
2022/10/11 04:46:08;;;;;;;8.33;1.20;;;9.20;99.90;;;;;;4992334;28;20208;-90
2022/10/11 04:48:34;;;;;;;2.77;0.87;;;9.10;99.90;;;;;;4991557;28;20684;-91
2022/10/11 04:50:59;;;;;;;5.03;1.40;;;9.10;99.90;;;;;;4989496;28;20226;-91
2022/10/11 04:53:25;;;;;;;11.13;1.27;;;9.20;99.90;;;;;;4973698;28;20212;-90
2022/10/11 04:55:59;;;;;;;0.77;0.77;;;9.20;99.90;;;;;;4990924;28;20273;-90
2022/10/11 04:58:27;;;;;;;4.43;0.90;;;9.30;99.90;;;;;;4990968;28;20208;-90
2022/10/11 05:00:53;;;;;;;6.23;2.00;;;9.30;99.90;;;;;;4973576;28;20571;-90
2022/10/11 05:03:19;;;;;;;4.23;1.73;;;9.40;99.90;;;;;;4990740;28;20693;-90
2022/10/11 05:05:44;;;;;;;1.30;0.90;;;9.30;99.90;;;;;;4959170;28;20195;-90
2022/10/11 05:08:10;;;;;;;0.53;0.53;;;9.30;99.90;;;;;;4958721;28;20811;-90
2022/10/11 05:10:36;;;;;;;11.27;1.07;;;9.20;99.90;;;;;;4958026;28;20219;-89
2022/10/11 05:13:02;;;;;;;1.57;0.70;;;9.10;99.90;;;;;;4989697;28;20239;-91
2022/10/11 05:15:28;;;;;;;4.00;1.30;;;9.10;99.90;;;;;;4990705;28;20222;-91
2022/10/11 05:17:54;;;;;;;3.73;1.27;;;9.00;99.90;;;;;;4991334;28;20195;-90
2022/10/11 05:20:19;;;;;;;0.53;0.50;;;9.10;99.90;;;;;;4958513;28;20258;-90
2022/10/11 05:22:45;;;;;;;0.57;0.57;;;9.10;99.90;;;;;;4973192;28;20215;-90
2022/10/11 05:25:11;;;;;;;5.97;0.93;;;9.20;99.90;;;;;;4972828;28;20351;-90
2022/10/11 05:27:37;;;;;;;1.53;0.80;;;9.20;99.90;;;;;;4971543;28;20219;-91
2022/10/11 05:30:04;;;;;;;7.70;1.53;;;9.20;99.90;;;;;;4988491;28;20748;-90
2022/10/11 05:32:30;;;;;;;4.00;2.33;;;9.20;99.90;;;;;;4975814;28;20672;-90
2022/10/11 05:34:56;;;;;;;1.50;1.07;;;9.10;99.90;;;;;;4991374;28;20765;-91
2022/10/11 05:37:23;;;;;;;4.47;0.43;;;9.20;99.90;;;;;;4975658;28;20232;-91
2022/10/11 05:39:49;;;;;;;3.13;2.50;;;9.20;99.90;;;;;;4976804;28;20334;-90
2022/10/11 05:42:18;;;;;;;6.70;1.93;;;9.30;99.90;;;;;;4976110;28;20706;-90
2022/10/11 05:44:46;;;;;;;0.63;0.40;;;9.30;99.90;;;;;;4957472;28;20231;-90
2022/10/11 05:47:12;;;;;;;3.67;1.40;;;9.40;99.90;;;;;;4966618;28;20722;-92
2022/10/11 05:49:38;;;;;;;2.70;1.57;;;9.40;99.90;;;;;;4972207;28;20227;-93
2022/10/11 05:52:05;;;;;;;4.87;1.67;;;9.50;99.90;;;;;;4971782;28;20220;-92
2022/10/11 05:54:31;;;;;;;2.13;0.93;;;9.50;99.90;;;;;;4957987;28;20355;-92
2022/10/11 05:56:57;;;;;;;0.97;0.97;;;9.50;99.90;;;;;;4972961;28;20199;-92
2022/10/11 05:59:23;;;;;;;0.97;0.63;;;9.50;99.90;;;;;;4973711;28;20648;-93
2022/10/11 06:01:49;;;;;;;1.83;1.27;;;9.50;99.90;;;;;;4966801;28;20212;-93
2022/10/11 06:04:17;;;;;;;2.63;1.53;;;9.50;99.90;;;;;;4958216;28;20252;-95
2022/10/11 06:06:44;;;;;;;4.57;0.87;;;9.60;99.90;;;;;;4975728;28;20259;-91
2022/10/11 06:09:09;;;;;;;3.13;1.40;;;9.70;99.90;;;;;;4990367;28;20212;-92
2022/10/11 06:11:36;;;;;;;2.63;1.73;;;9.80;99.90;;;;;;4961343;28;20302;-91
2022/10/11 06:14:02;;;;;;;0.73;0.53;;;9.80;99.90;;;;;;4964840;28;20199;-91
2022/10/11 06:16:28;;;;;;;3.90;0.60;;;9.90;99.90;;;;;;4995780;28;20575;-91
2022/10/11 06:18:56;;;;;;;4.30;1.43;;;10.00;99.90;;;;;;4963039;28;20213;-91
2022/10/11 06:21:22;;;;;;;3.00;1.93;;;10.10;99.90;;;;;;4979855;28;20303;-92
2022/10/11 06:23:49;;;;;;;1.47;0.70;;;10.40;99.90;;;;;;4996410;28;20568;-92
2022/10/11 06:26:16;;;;;;;11.77;1.23;;;10.50;99.90;;;;;;4980753;28;20275;-91
2022/10/11 06:28:42;;;;;;;3.17;0.77;;;10.60;99.90;;;;;;4995033;28;20240;-92
2022/10/11 06:31:10;;;;;;;1.33;1.13;;;10.40;99.90;;;;;;4976030;28;20218;-93
2022/10/11 06:33:37;;;;;;;10.60;1.53;;;10.40;99.90;;;;;;4994728;28;20327;-91
2022/10/11 06:36:06;;;;;;;7.97;1.27;;;10.20;99.90;;;;;;4979188;28;20219;-91
2022/10/11 06:38:32;;;;;;;3.20;1.30;;;10.30;99.90;;;;;;4995740;28;20200;-91
2022/10/11 06:41:17;;;;;;;0.70;0.70;;;10.30;99.90;;;;;;4979207;28;20227;-91
2022/10/11 06:43:44;;;;;;;4.30;0.63;;;10.30;99.90;;;;;;4995016;28;20623;-91
2022/10/11 06:46:10;;;;;;;1.03;0.80;;;10.40;99.90;;;;;;4959718;28;20221;-91
2022/10/11 06:48:43;;;;;;;1.33;1.20;;;10.50;99.90;;;;;;4994880;28;20585;-91
2022/10/11 06:51:10;;;;;;;2.37;0.77;;;10.60;99.90;;;;;;4978979;28;20307;-91
2022/10/11 06:53:36;;;;;;;1.87;0.73;;;10.70;99.90;;;;;;4970194;28;20212;-91
2022/10/11 06:56:09;;;;;;;4.27;0.73;;;10.80;99.90;;;;;;4958306;28;20176;-90
2022/10/11 06:58:35;;;;;;;1.83;1.20;;;11.10;99.90;;;;;;4992237;28;20224;-92
2022/10/11 07:01:12;;;;;;;3.07;1.13;;;11.50;99.90;;;;;;4975408;28;20355;-90
2022/10/11 07:03:38;;;;;;;0.73;0.60;;;11.70;99.90;;;;;;5009050;28;20251;-91
2022/10/11 07:06:07;;;;;;;3.63;1.43;;;11.80;99.90;;;;;;4992314;28;20211;-91
2022/10/11 07:08:34;;;;;;;11.47;1.40;;;12.00;99.90;;;;;;5007698;28;20680;-91
2022/10/11 07:11:20;;;;;;;0.80;0.80;;;12.20;99.90;;;;;;4991675;28;20216;-91
2022/10/11 07:13:51;;;;;;;4.73;1.17;;;12.30;99.90;;;;;;4990966;28;20223;-90
2022/10/11 07:16:18;;;;;;;0.93;0.57;;;12.40;99.90;;;;;;4974288;28;20223;-91
2022/10/11 07:18:45;;;;;;;3.37;0.90;;;12.40;99.90;;;;;;4958912;28;20216;-88
2022/10/11 07:21:12;;;;;;;29.27;1.67;;;12.40;99.90;;;;;;4975210;28;20227;-91
2022/10/11 07:23:39;;;;;;;4.13;0.93;;;12.50;99.90;;;;;;4972250;28;20195;-90
2022/10/11 07:26:06;;;;;;;1.87;1.47;;;12.50;99.90;;;;;;4978297;28;20262;-90
2022/10/11 07:28:33;;;;;;;8.83;1.63;;;12.50;99.90;;;;;;4994742;28;20224;-90
2022/10/11 07:31:08;;;;;;;0.90;0.90;;;12.90;99.90;;;;;;4995986;28;20220;-91
2022/10/11 07:33:34;;;;;;;6.37;1.30;;;12.80;99.90;;;;;;4993350;28;20314;-90
2022/10/11 07:36:00;;;;;;;1.73;1.07;;;12.90;99.90;;;;;;4959900;28;20311;-92
2022/10/11 07:38:26;;;;;;;7.33;1.23;;;12.80;99.90;;;;;;4977829;28;20282;-91
2022/10/11 07:40:52;;;;;;;5.27;1.40;;;12.50;99.90;;;;;;4993601;28;20298;-92
2022/10/11 07:43:18;;;;;;;4.63;1.60;;;12.30;99.90;;;;;;4966311;28;20212;-91
2022/10/11 07:45:46;;;;;;;4.77;1.37;;;12.30;99.90;;;;;;4974549;28;20219;-91
2022/10/11 07:48:12;;;;;;;4.87;0.97;;;12.30;99.90;;;;;;4974132;28;20294;-91
2022/10/11 07:50:38;;;;;;;3.40;2.43;;;12.20;99.90;;;;;;4973413;28;20195;-91
2022/10/11 07:53:04;;;;;;;1.33;0.77;;;12.50;99.90;;;;;;4958068;28;20196;-91
2022/10/11 07:55:34;;;;;;;1.57;1.40;;;13.30;99.90;;;;;;4972907;28;20219;-91
2022/10/11 07:58:00;;;;;;;3.23;1.40;;;14.80;99.90;;;;;;4972310;28;20229;-93
2022/10/11 08:00:25;;;;;;;7.07;1.63;;;16.50;99.90;;;;;;4956128;28;20216;-92
2022/10/11 08:02:51;;;;;;;6.93;1.77;;;18.10;99.90;;;;;;4955945;28;20192;-93
2022/10/11 08:05:17;;;;;;;3.03;1.30;;;19.10;99.90;;;;;;4974602;28;20226;-91
2022/10/11 08:07:43;;;;;;;7.50;1.30;;;19.00;99.90;;;;;;4957235;28;20282;-93
2022/10/11 08:10:09;;;;;;;4.03;2.03;;;18.60;99.90;;;;;;4972275;28;20603;-89
2022/10/11 08:12:35;;;;;;;5.37;1.77;;;18.10;99.90;;;;;;4956149;28;20307;-90
2022/10/11 08:15:01;;;;;;;4.63;1.13;;;18.00;99.90;;;;;;4956429;28;20288;-93
2022/10/11 08:17:27;;;;;;;2.90;1.07;;;18.90;99.90;;;;;;4949582;28;20186;-92
2022/10/11 08:19:52;;;;;;;3.37;0.97;;;19.70;99.90;;;;;;4972227;28;20217;-91
2022/10/11 08:22:18;;;;;;;3.37;1.87;;;20.90;99.90;;;;;;4971108;28;20690;-90
2022/10/11 08:24:47;;;;;;;2.70;1.23;;;20.50;99.90;;;;;;4955450;28;20262;-89
2022/10/11 08:27:13;;;;;;;3.57;1.10;;;19.70;99.90;;;;;;4956735;28;20226;-89
2022/10/11 08:29:38;;;;;;;2.07;1.17;;;20.00;99.90;;;;;;4955335;28;20502;-89
2022/10/11 08:32:04;;;;;;;4.37;1.37;;;19.70;99.90;;;;;;4956467;28;20307;-87
2022/10/11 08:34:30;;;;;;;4.10;1.17;;;20.20;99.90;;;;;;4972695;28;20212;-91
2022/10/11 08:36:56;;;;;;;3.80;1.57;;;20.30;99.90;;;;;;4972043;28;20236;-93
2022/10/11 08:39:22;;;;;;;1.67;0.83;;;19.80;99.90;;;;;;4957530;28;20323;-93
2022/10/11 08:41:59;;;;;;;2.07;1.20;;;19.60;99.90;;;;;;4972678;28;20272;-93
2022/10/11 08:44:43;;;;;;;1.70;1.13;;;19.40;99.90;;;;;;4981500;28;20680;-93
2022/10/11 08:47:17;;;;;;;3.90;1.67;;;19.20;99.90;;;;;;4988211;28;20212;-90
2022/10/11 08:49:43;;;;;;;10.37;1.40;;;18.70;99.90;;;;;;4990308;28;20587;-93
2022/10/11 08:52:22;;;;;;;4.07;1.77;;;18.80;99.90;;;;;;4989380;28;20230;-93
2022/10/11 08:54:56;;;;;;;7.83;1.43;;;18.40;99.90;;;;;;4989265;28;20211;-91
2022/10/11 08:57:28;;;;;;;2.67;1.07;;;18.90;99.90;;;;;;4988780;28;20244;-94
2022/10/11 09:00:11;;;;;;;0.60;0.60;;;19.00;99.90;;;;;;5006137;28;20762;-90
2022/10/11 09:03:00;;;;;;;1.03;0.90;;;18.70;99.90;;;;;;4987776;28;20211;-92
2022/10/11 09:05:34;;;;;;;5.00;1.40;;;18.80;99.90;;;;;;4988292;28;20192;-91
2022/10/11 09:08:13;;;;;;;5.63;1.23;;;18.60;99.90;;;;;;4987885;28;20246;-92
2022/10/11 09:10:56;;;;;;;7.57;1.17;;;18.40;99.90;;;;;;4979719;28;20212;-92
2022/10/11 09:13:57;;;;;;;5.90;1.07;;;18.10;99.90;;;;;;4987756;28;20216;-92
2022/10/11 09:16:49;;;;;;;6.10;1.33;;;17.80;99.90;;;;;;4987220;28;20667;-93
2022/10/11 09:19:51;;;;;;;1.77;1.00;;;17.50;99.90;;;;;;4963382;28;20226;-93
2022/10/11 09:22:56;;;;;;;3.73;1.43;;;16.80;99.90;;;;;;4979690;28;20223;-93
2022/10/11 09:25:32;;;;;;;6.80;0.97;;;16.80;99.90;;;;;;5002469;28;20211;-93
2022/10/11 09:28:19;;;;;;;2.93;1.33;;;16.60;99.90;;;;;;4987355;28;20208;-92
2022/10/11 09:30:49;;;;;;;3.60;0.97;;;16.20;99.90;;;;;;4979136;28;20224;-92
2022/10/11 09:33:24;;;;;;;5.40;0.90;;;15.70;99.90;;;;;;5003481;28;20711;-92
2022/10/11 09:35:51;;;;;;;2.70;0.93;;;15.60;99.90;;;;;;4987573;28;20238;-93
2022/10/11 09:38:40;;;;;;;2.63;0.40;;;15.50;99.90;;;;;;4971756;28;20326;-92
2022/10/11 09:41:27;;;;;;;1.13;0.33;;;15.70;99.90;;;;;;4987866;28;20211;-92
2022/10/11 09:43:53;;;;;;;0.83;0.43;;;15.80;99.90;;;;;;4987170;28;20208;-91
2022/10/11 09:46:35;;;;;;;1.33;0.50;;;15.90;99.90;;;;;;4971730;28;20261;-92
2022/10/11 09:49:06;;;;;;;2.20;0.97;;;16.00;99.90;;;;;;4999245;28;20239;-93
2022/10/11 09:51:33;;;;;;;0.80;0.40;;;16.00;99.90;;;;;;4992447;28;20235;-92
2022/10/11 09:54:03;;;;;;;0.77;0.70;;;16.00;99.90;;;;;;4960284;28;20232;-92
2022/10/11 09:56:31;;;;;;;3.47;0.90;;;16.00;99.90;;;;;;4976338;28;20562;-93
2022/10/11 09:59:16;;;;;;;1.63;0.87;;;15.90;99.90;;;;;;4991475;28;20309;-92
2022/10/11 10:01:43;;;;;;;3.70;0.97;;;16.20;99.90;;;;;;4990651;28;20606;-92
2022/10/11 10:04:15;;;;;;;2.57;0.83;;;16.50;99.90;;;;;;4958829;28;20322;-92
2022/10/11 10:06:41;;;;;;;2.80;0.93;;;16.70;99.90;;;;;;4991069;28;20645;-91
2022/10/11 10:09:25;;;;;;;8.30;1.50;;;17.10;99.90;;;;;;4960005;28;20223;-92
2022/10/11 10:11:53;;;;;;;2.30;0.83;;;17.20;99.90;;;;;;4968875;28;20203;-93
2022/10/11 10:14:23;;;;;;;3.23;1.00;;;17.00;99.90;;;;;;4977296;28;20254;-93
2022/10/11 10:17:00;;;;;;;0.97;0.90;;;17.20;99.90;;;;;;4992867;28;20216;-93
2022/10/11 10:19:28;;;;;;;7.93;1.43;;;17.20;99.90;;;;;;5007695;28;20727;-93
2022/10/11 10:21:55;;;;;;;2.30;0.93;;;16.80;99.90;;;;;;4992252;28;20235;-92
2022/10/11 10:24:38;;;;;;;3.53;0.87;;;16.40;99.90;;;;;;5007018;28;21078;-93
2022/10/11 10:27:13;;;;;;;5.20;1.07;;;16.10;99.90;;;;;;4992222;28;20309;-92
2022/10/11 10:29:39;;;;;;;0.93;0.50;;;16.20;99.90;;;;;;4991540;28;20188;-92
2022/10/11 10:32:12;;;;;;;1.90;0.80;;;16.70;99.90;;;;;;4975303;28;20295;-93
2022/10/11 10:35:05;;;;;;;8.73;2.53;;;16.80;99.90;;;;;;5008743;28;20216;-92
2022/10/11 10:37:41;;;;;;;0.83;0.50;;;16.80;99.90;;;;;;4991283;28;20232;-91
2022/10/11 10:40:20;;;;;;;2.60;1.23;;;16.90;99.90;;;;;;4990195;28;20216;-93
2022/10/11 10:42:46;;;;;;;4.07;0.97;;;17.30;99.90;;;;;;4981143;28;20220;-89
2022/10/11 10:45:16;;;;;;;2.23;0.43;;;17.70;99.90;;;;;;4974558;28;20595;-93
2022/10/11 10:48:05;;;;;;;4.77;1.53;;;17.40;99.90;;;;;;4990300;28;20245;-92
2022/10/11 10:50:54;;;;;;;4.47;0.90;;;17.80;99.90;;;;;;4984090;28;20176;-92
2022/10/11 10:53:31;;;;;;;2.87;0.80;;;18.50;99.90;;;;;;4990766;28;21272;-90
2022/10/11 10:56:15;;;;;;;0.60;0.60;;;18.10;99.90;;;;;;4989419;28;20212;-91
2022/10/11 10:58:50;;;;;;;3.70;0.80;;;17.50;99.90;;;;;;5004523;28;20244;-89
2022/10/11 11:01:25;;;;;;;4.97;1.13;;;17.60;99.90;;;;;;4984569;28;20215;-95
2022/10/11 11:03:59;;;;;;;1.00;0.90;;;17.70;99.90;;;;;;4975417;28;20334;-95
2022/10/11 11:07:02;;;;;;;3.17;0.73;;;17.30;99.90;;;;;;4990539;28;20242;-92
2022/10/11 11:10:02;;;;;;;0.97;0.87;;;17.10;99.90;;;;;;4990594;28;20678;-92
2022/10/11 11:12:41;;;;;;;3.13;0.80;;;17.00;99.90;;;;;;4983740;28;20219;-95
2022/10/11 11:15:19;;;;;;;2.17;0.63;;;17.00;99.90;;;;;;4984967;28;20572;-96
2022/10/11 11:18:03;;;;;;;2.53;0.43;;;17.40;99.90;;;;;;4991590;28;20188;-96
2022/10/11 11:21:11;;;;;;;1.47;0.60;;;18.50;99.90;;;;;;4992547;28;20195;-95
2022/10/11 11:24:12;;;;;;;1.97;1.13;;;19.60;99.90;;;;;;5007207;28;20274;-92
2022/10/11 11:26:51;;;;;;;4.63;1.23;;;19.30;99.90;;;;;;4983463;28;20215;-93
2022/10/11 11:30:02;;;;;;;7.27;0.90;;;19.40;99.90;;;;;;4990270;28;20654;-93
2022/10/11 11:32:46;;;;;;;1.80;0.67;;;19.70;99.90;;;;;;5006806;28;21140;-93
2022/10/11 11:35:36;;;;;;;2.10;0.67;;;19.60;99.90;;;;;;4989060;28;20216;-92
2022/10/11 11:38:19;;;;;;;4.30;0.80;;;19.50;99.90;;;;;;4989852;28;20275;-91
2022/10/11 11:40:54;;;;;;;2.47;0.80;;;19.40;99.90;;;;;;4971830;28;20344;-89
2022/10/11 11:43:35;;;;;;;3.97;1.27;;;18.90;99.90;;;;;;4969543;28;20298;-90
2022/10/11 11:46:12;;;;;;;4.00;0.80;;;19.00;99.90;;;;;;4969130;28;20259;-91
2022/10/11 11:48:39;;;;;;;3.30;1.30;;;19.00;99.90;;;;;;4969659;28;20216;-89
2022/10/11 11:51:08;;;;;;;2.33;0.87;;;18.50;99.90;;;;;;4946207;28;20783;-90
2022/10/11 11:54:07;;;;;;;5.17;0.93;;;18.70;99.90;;;;;;4969867;28;20219;-90
2022/10/11 11:57:00;;;;;;;3.83;1.03;;;18.40;99.90;;;;;;4989272;28;20551;-89
2022/10/11 11:59:30;;;;;;;1.77;0.90;;;18.30;99.90;;;;;;4989042;28;20602;-90
2022/10/11 12:02:28;;;;;;;12.77;1.30;;;18.20;99.90;;;;;;4988710;28;20211;-89
2022/10/11 12:04:56;;;;;;;5.93;0.90;;;17.90;99.90;;;;;;4988267;28;20220;-89
2022/10/11 12:07:23;;;;;;;3.10;0.97;;;17.90;99.90;;;;;;4988715;28;20693;-90
2022/10/11 12:09:53;;;;;;;3.83;1.27;;;17.80;99.90;;;;;;4961923;28;20212;-91
2022/10/11 12:12:35;;;;;;;2.67;0.97;;;17.70;99.90;;;;;;4975176;28;20227;-90
2022/10/11 12:15:22;;;;;;;1.93;0.87;;;17.40;99.90;;;;;;4994099;28;20295;-92
2022/10/11 12:17:54;;;;;;;0.87;0.50;;;17.60;99.90;;;;;;4969776;28;20650;-92
2022/10/11 12:20:28;;;;;;;2.67;0.73;;;17.60;99.90;;;;;;4985372;28;20188;-92
2022/10/11 12:23:02;;;;;;;2.93;1.20;;;17.60;99.90;;;;;;4985238;28;20232;-93
2022/10/11 12:25:33;;;;;;;1.00;0.80;;;17.50;99.90;;;;;;4968823;28;20720;-92
2022/10/11 12:28:47;;;;;;;3.57;0.90;;;17.40;99.90;;;;;;4969185;28;20213;-92
2022/10/11 12:31:26;;;;;;;1.53;0.90;;;17.30;99.90;;;;;;5002611;28;20760;-92
2022/10/11 12:33:59;;;;;;;4.63;1.17;;;17.30;99.90;;;;;;4978924;28;20228;-93
2022/10/11 12:36:35;;;;;;;4.57;0.90;;;17.40;99.90;;;;;;4990270;28;20246;-93
2022/10/11 12:39:19;;;;;;;3.03;0.90;;;17.40;99.90;;;;;;4968496;28;20278;-93
2022/10/11 12:44:27;;;;;;;2.73;0.70;;;17.10;99.90;;;;;;4971943;28;20220;-93
2022/10/11 12:47:11;;;;;;;3.60;0.60;;;16.90;99.90;;;;;;4957105;28;20224;-94
2022/10/11 12:50:09;;;;;;;3.10;0.77;;;16.80;99.90;;;;;;4970942;28;20223;-94
2022/10/11 12:52:54;;;;;;;1.17;1.17;;;16.60;99.90;;;;;;4972462;28;20223;-95
2022/10/11 12:55:26;;;;;;;2.10;1.17;;;16.60;99.90;;;;;;4965155;28;20219;-94
2022/10/11 12:58:17;;;;;;;0.50;0.50;;;16.80;99.90;;;;;;4969525;28;20222;-96
2022/10/11 13:01:03;;;;;;;4.37;0.40;;;16.80;99.90;;;;;;4962834;28;20220;-94
2022/10/11 13:03:49;;;;;;;1.93;0.87;;;16.70;99.90;;;;;;4970928;28;20242;-94
2022/10/11 13:06:18;;;;;;;3.87;1.03;;;16.80;99.90;;;;;;4969667;28;20212;-96
2022/10/11 13:08:48;;;;;;;3.70;0.70;;;16.90;99.90;;;;;;4961134;28;20188;-94
2022/10/11 13:11:21;;;;;;;2.93;0.93;;;16.90;99.90;;;;;;4972067;28;20215;-95
2022/10/11 13:13:54;;;;;;;4.00;0.77;;;16.60;99.90;;;;;;4987614;28;20228;-93
2022/10/11 13:16:24;;;;;;;3.83;0.87;;;16.70;99.90;;;;;;4986467;28;20224;-95